Time;durP1;ratioP1;P1;durP2;ratioP2;P2;SDS_P1;SDS_P2;PMS_P1;PMS_P2;Temp;Humidity;BMP_temperature;BMP_pressure;BME280_temperature;BME280_humidity;BME280_pressure;Samples;Min_cycle;Max_cycle;Signal;HPM_P1;HPM_P2
2023/11/02 00:02:26;;;;;;;3.30;1.60;;;20.30;63.30;;;;;;4935328;29;20432;-74
2023/11/02 00:04:55;;;;;;;2.33;1.47;;;20.20;63.10;;;;;;4928313;29;20440;-74
2023/11/02 00:07:23;;;;;;;3.90;1.40;;;20.20;63.20;;;;;;4927138;29;20444;-74
2023/11/02 00:09:55;;;;;;;1.73;1.10;;;20.20;63.20;;;;;;4932461;29;20543;-74
2023/11/02 00:12:26;;;;;;;2.07;1.47;;;20.20;63.00;;;;;;4940826;29;20425;-74
2023/11/02 00:14:54;;;;;;;4.87;1.40;;;20.20;63.20;;;;;;4935291;29;20444;-74
2023/11/02 00:17:58;;;;;;;2.10;1.20;;;20.10;62.90;;;;;;4935016;29;20448;-74
2023/11/02 00:20:31;;;;;;;1.47;1.23;;;20.20;63.30;;;;;;4931978;29;20459;-74
2023/11/02 00:22:59;;;;;;;3.10;1.40;;;20.10;63.00;;;;;;4938508;29;20538;-74
2023/11/02 00:25:50;;;;;;;3.53;1.20;;;20.10;62.60;;;;;;4944699;29;20522;-74
2023/11/02 00:28:18;;;;;;;1.60;1.50;;;20.10;63.10;;;;;;4927521;29;20467;-75
2023/11/02 00:30:48;;;;;;;2.77;1.57;;;20.00;62.90;;;;;;4935720;29;20479;-74
2023/11/02 00:33:17;;;;;;;2.47;1.40;;;20.00;62.80;;;;;;4933313;29;20452;-75
2023/11/02 00:35:47;;;;;;;1.50;1.30;;;20.00;62.80;;;;;;4931666;29;20550;-75
2023/11/02 00:38:22;;;;;;;1.73;1.23;;;20.00;62.80;;;;;;4933815;29;20877;-74
2023/11/02 00:40:50;;;;;;;2.40;1.30;;;20.00;62.60;;;;;;4941030;29;20438;-74
2023/11/02 00:43:22;;;;;;;1.43;1.37;;;20.00;62.60;;;;;;4936761;29;20475;-75
2023/11/02 00:45:50;;;;;;;2.13;1.47;;;19.90;62.20;;;;;;4940261;29;20519;-75
2023/11/02 00:48:20;;;;;;;1.27;1.17;;;19.90;62.50;;;;;;4938250;29;20527;-75
2023/11/02 00:51:19;;;;;;;2.57;1.20;;;19.90;62.20;;;;;;4935566;29;20483;-75
2023/11/02 00:53:52;;;;;;;3.17;1.47;;;19.90;62.60;;;;;;4930759;29;20454;-77
2023/11/02 00:56:20;;;;;;;2.30;1.33;;;19.80;62.30;;;;;;4930963;29;20480;-76
2023/11/02 00:58:50;;;;;;;1.83;1.20;;;19.90;62.30;;;;;;4943174;28;20486;-76
2023/11/02 01:01:19;;;;;;;1.37;1.10;;;19.80;62.30;;;;;;4930497;29;20452;-76
2023/11/02 01:03:50;;;;;;;2.10;1.40;;;19.80;62.10;;;;;;4927089;29;20516;-76
2023/11/02 01:06:20;;;;;;;2.73;1.20;;;19.80;62.10;;;;;;4944287;29;20423;-76
2023/11/02 01:09:02;;;;;;;1.50;1.10;;;19.80;62.10;;;;;;4937979;29;20467;-76
2023/11/02 01:11:35;;;;;;;1.30;1.20;;;19.80;62.30;;;;;;4931575;29;20610;-76
2023/11/02 01:14:27;;;;;;;1.93;1.57;;;19.80;62.10;;;;;;4930149;29;20479;-76
2023/11/02 01:16:56;;;;;;;2.70;1.30;;;19.80;62.20;;;;;;4935453;29;20524;-75
2023/11/02 01:19:50;;;;;;;1.53;1.30;;;19.70;62.10;;;;;;4941736;29;21020;-76
2023/11/02 01:22:50;;;;;;;1.30;1.20;;;19.70;62.30;;;;;;4937647;29;20472;-75
2023/11/02 01:25:19;;;;;;;1.10;1.00;;;19.70;62.30;;;;;;4931738;29;20439;-75
2023/11/02 01:27:47;;;;;;;1.30;1.20;;;19.70;61.90;;;;;;4944665;29;20500;-75
2023/11/02 01:30:53;;;;;;;1.23;1.13;;;19.70;62.10;;;;;;4922288;29;20486;-75
2023/11/02 01:33:55;;;;;;;2.80;1.10;;;19.70;62.40;;;;;;4921820;29;20452;-76
2023/11/02 01:36:36;;;;;;;1.30;1.20;;;19.70;62.30;;;;;;4913001;29;20459;-75
2023/11/02 01:39:37;;;;;;;5.43;1.33;;;19.60;62.00;;;;;;4943147;28;20997;-75
2023/11/02 01:42:08;;;;;;;1.27;1.17;;;19.60;62.20;;;;;;4906981;29;20467;-75
2023/11/02 01:44:41;;;;;;;1.37;1.27;;;19.60;62.00;;;;;;4937532;29;20440;-76
2023/11/02 01:47:12;;;;;;;1.10;1.00;;;19.60;61.80;;;;;;4928102;29;20429;-75
2023/11/02 01:49:48;;;;;;;1.90;1.20;;;19.60;61.80;;;;;;4937208;29;20460;-75
2023/11/02 01:52:24;;;;;;;2.07;1.10;;;19.60;61.80;;;;;;4926915;29;20519;-75
2023/11/02 01:54:53;;;;;;;1.23;1.10;;;19.50;61.80;;;;;;4926022;29;20999;-75
2023/11/02 01:57:23;;;;;;;3.70;1.23;;;19.50;61.90;;;;;;4938560;29;20467;-75
2023/11/02 01:59:52;;;;;;;1.03;0.90;;;19.50;61.70;;;;;;4930672;29;20476;-75
2023/11/02 02:02:24;;;;;;;4.30;1.20;;;19.50;61.60;;;;;;4931246;28;20508;-75
2023/11/02 02:04:59;;;;;;;2.40;1.07;;;19.50;62.30;;;;;;4938829;29;20444;-76
2023/11/02 02:07:33;;;;;;;2.20;1.00;;;19.50;61.60;;;;;;4926287;29;20467;-75
2023/11/02 02:10:07;;;;;;;1.50;1.10;;;19.50;61.80;;;;;;4936923;29;20463;-75
2023/11/02 02:12:46;;;;;;;5.00;1.27;;;19.50;61.70;;;;;;4932145;29;20432;-76
2023/11/02 02:15:17;;;;;;;1.37;1.20;;;19.50;61.50;;;;;;4935752;29;20530;-75
2023/11/02 02:17:49;;;;;;;1.60;1.00;;;19.40;61.70;;;;;;4936894;29;20523;-75
2023/11/02 02:20:19;;;;;;;0.93;0.93;;;19.40;61.70;;;;;;4926518;29;20468;-76
2023/11/02 02:22:52;;;;;;;1.30;1.10;;;19.40;61.60;;;;;;4939839;29;20471;-75
2023/11/02 02:25:24;;;;;;;2.33;1.10;;;19.40;61.40;;;;;;4933875;29;20480;-75
2023/11/02 02:28:16;;;;;;;3.33;1.23;;;19.40;61.60;;;;;;4934755;29;20436;-75
2023/11/02 02:31:08;;;;;;;1.10;1.00;;;19.40;61.50;;;;;;4934867;29;20483;-76
2023/11/02 02:34:02;;;;;;;3.50;1.20;;;19.40;61.70;;;;;;4912297;29;20455;-75
2023/11/02 02:36:35;;;;;;;1.03;1.03;;;19.30;61.40;;;;;;4927988;29;20455;-75
2023/11/02 02:39:05;;;;;;;5.10;1.10;;;19.30;61.30;;;;;;4934488;29;20479;-75
2023/11/02 02:41:37;;;;;;;1.23;1.13;;;19.30;61.40;;;;;;4936231;29;20452;-75
2023/11/02 02:44:06;;;;;;;1.70;0.90;;;19.30;61.00;;;;;;4943690;29;20468;-75
2023/11/02 02:46:34;;;;;;;2.77;1.60;;;19.30;61.30;;;;;;4936056;29;20476;-75
2023/11/02 02:49:02;;;;;;;1.37;1.10;;;19.30;61.30;;;;;;4937060;29;20498;-76
2023/11/02 02:51:32;;;;;;;2.20;1.20;;;19.30;61.10;;;;;;4936093;29;20479;-75
2023/11/02 02:54:02;;;;;;;0.97;0.97;;;19.20;61.10;;;;;;4928725;29;20441;-76
2023/11/02 02:56:31;;;;;;;1.90;1.20;;;19.20;61.20;;;;;;4936666;29;20480;-75
2023/11/02 02:59:00;;;;;;;1.00;1.00;;;19.20;61.20;;;;;;4936095;29;20550;-75
2023/11/02 03:01:29;;;;;;;2.20;1.20;;;19.20;61.20;;;;;;4936220;29;20435;-75
2023/11/02 03:03:57;;;;;;;1.10;0.83;;;19.20;60.90;;;;;;4935753;29;20452;-76
2023/11/02 03:06:25;;;;;;;1.50;1.00;;;19.20;61.00;;;;;;4936006;29;20448;-76
2023/11/02 03:08:55;;;;;;;3.37;1.40;;;19.20;61.20;;;;;;4935799;29;20460;-76
2023/11/02 03:11:23;;;;;;;1.60;1.00;;;19.20;60.90;;;;;;4935889;29;20475;-76
2023/11/02 03:13:53;;;;;;;1.40;1.23;;;19.20;61.00;;;;;;4932261;29;20456;-76
2023/11/02 03:16:21;;;;;;;1.83;0.83;;;19.20;60.90;;;;;;4935735;29;20515;-75
2023/11/02 03:18:49;;;;;;;2.10;0.93;;;19.10;60.90;;;;;;4929757;29;20493;-75
2023/11/02 03:21:18;;;;;;;3.40;1.00;;;19.20;60.90;;;;;;4927850;29;20444;-75
2023/11/02 03:23:49;;;;;;;1.27;1.03;;;19.10;60.90;;;;;;4941112;28;20535;-75
2023/11/02 03:26:24;;;;;;;1.77;0.90;;;19.10;60.60;;;;;;4926157;29;20444;-75
2023/11/02 03:29:01;;;;;;;1.40;1.30;;;19.10;60.80;;;;;;4930709;29;20449;-75
2023/11/02 03:31:41;;;;;;;1.13;1.07;;;19.10;60.90;;;;;;4934885;29;20573;-75
2023/11/02 03:34:13;;;;;;;0.97;0.80;;;19.10;60.90;;;;;;4927524;29;20482;-75
2023/11/02 03:36:48;;;;;;;1.10;1.00;;;19.10;60.80;;;;;;4927722;29;20436;-75
2023/11/02 03:39:21;;;;;;;0.90;0.80;;;19.10;61.00;;;;;;4934787;29;20562;-75
2023/11/02 03:41:58;;;;;;;0.70;0.70;;;19.10;60.80;;;;;;4933198;29;20428;-75
2023/11/02 03:44:29;;;;;;;1.83;1.10;;;19.10;60.90;;;;;;4929871;29;20448;-75
2023/11/02 03:47:04;;;;;;;1.40;1.00;;;19.10;60.70;;;;;;4940103;29;20532;-75
2023/11/02 03:49:34;;;;;;;1.30;1.00;;;19.10;60.70;;;;;;4935258;29;20563;-75
2023/11/02 03:52:08;;;;;;;1.43;1.10;;;19.10;60.90;;;;;;4920300;29;20569;-75
2023/11/02 03:54:52;;;;;;;0.93;0.93;;;19.00;60.60;;;;;;4931385;29;20445;-75
2023/11/02 03:57:27;;;;;;;1.57;1.10;;;19.00;60.80;;;;;;4935298;29;20479;-77
2023/11/02 04:00:01;;;;;;;1.47;1.20;;;19.00;60.60;;;;;;4940371;28;20455;-76
2023/11/02 04:02:31;;;;;;;1.97;1.10;;;19.00;60.90;;;;;;4928050;29;20456;-75
2023/11/02 04:05:06;;;;;;;0.70;0.70;;;19.00;60.60;;;;;;4941532;29;20482;-75
2023/11/02 04:07:39;;;;;;;0.90;0.80;;;19.00;60.80;;;;;;4935138;29;20443;-76
2023/11/02 04:10:07;;;;;;;1.80;1.43;;;19.00;60.70;;;;;;4934992;29;20543;-75
2023/11/02 04:12:42;;;;;;;1.00;0.83;;;19.00;60.50;;;;;;4930876;29;20557;-75
2023/11/02 04:15:10;;;;;;;1.53;1.10;;;19.00;60.80;;;;;;4938427;29;20526;-75
2023/11/02 04:17:38;;;;;;;0.80;0.80;;;19.00;60.80;;;;;;4935211;29;20451;-74
2023/11/02 04:20:09;;;;;;;0.93;0.80;;;19.00;60.90;;;;;;4935197;29;20479;-75
2023/11/02 04:22:39;;;;;;;1.03;1.03;;;19.00;60.90;;;;;;4927314;29;20471;-76
2023/11/02 04:25:07;;;;;;;0.80;0.80;;;19.00;60.70;;;;;;4934685;29;20479;-75
2023/11/02 04:27:35;;;;;;;1.10;1.00;;;19.00;60.70;;;;;;4927370;29;20436;-76
2023/11/02 04:30:05;;;;;;;1.63;0.90;;;19.00;60.80;;;;;;4934837;29;20467;-75
2023/11/02 04:32:33;;;;;;;4.13;1.00;;;19.00;60.50;;;;;;4931669;29;20496;-76
2023/11/02 04:35:01;;;;;;;1.20;1.10;;;18.90;60.30;;;;;;4924825;29;20465;-75
2023/11/02 04:37:29;;;;;;;0.90;0.80;;;19.00;60.60;;;;;;4933793;29;20448;-76
2023/11/02 04:39:57;;;;;;;1.93;0.80;;;18.90;60.60;;;;;;4930580;29;20609;-76
2023/11/02 04:42:25;;;;;;;1.57;0.90;;;18.90;60.40;;;;;;4936812;29;21013;-75
2023/11/02 04:44:53;;;;;;;1.97;1.13;;;18.90;60.40;;;;;;4934793;29;20444;-75
2023/11/02 04:47:22;;;;;;;0.90;0.90;;;18.90;60.50;;;;;;4926983;29;20455;-76
2023/11/02 04:49:50;;;;;;;0.90;0.90;;;18.90;60.40;;;;;;4922006;29;20476;-75
2023/11/02 04:52:18;;;;;;;1.00;0.90;;;18.90;60.20;;;;;;4931525;29;21082;-76
2023/11/02 04:54:46;;;;;;;0.90;0.90;;;18.90;60.50;;;;;;4930354;29;20533;-76
2023/11/02 04:57:14;;;;;;;2.97;0.97;;;18.90;60.40;;;;;;4931351;29;20448;-76
2023/11/02 04:59:42;;;;;;;1.00;0.90;;;18.90;60.50;;;;;;4934472;29;21030;-76
2023/11/02 05:02:11;;;;;;;1.40;1.30;;;18.90;60.40;;;;;;4934615;29;20853;-76
2023/11/02 05:04:40;;;;;;;1.57;0.80;;;18.90;60.40;;;;;;4929884;29;20455;-76
2023/11/02 05:07:08;;;;;;;0.93;0.90;;;18.90;60.30;;;;;;4934478;29;20545;-75
2023/11/02 05:09:37;;;;;;;0.97;0.97;;;18.90;60.10;;;;;;4934934;29;20499;-75
2023/11/02 05:12:05;;;;;;;0.93;0.87;;;18.90;60.40;;;;;;4942475;28;20559;-75
2023/11/02 05:14:33;;;;;;;1.33;1.10;;;18.90;60.40;;;;;;4937742;29;20432;-76
2023/11/02 05:17:01;;;;;;;0.90;0.80;;;18.90;60.40;;;;;;4932791;29;20534;-75
2023/11/02 05:19:29;;;;;;;5.70;1.20;;;18.90;60.30;;;;;;4936279;29;20527;-75
2023/11/02 05:21:58;;;;;;;3.17;1.07;;;18.90;60.30;;;;;;4928256;29;20468;-75
2023/11/02 05:24:26;;;;;;;1.47;1.10;;;18.90;60.40;;;;;;4928006;29;20883;-75
2023/11/02 05:26:54;;;;;;;0.80;0.80;;;18.90;60.50;;;;;;4937758;29;20440;-76
2023/11/02 05:29:22;;;;;;;0.83;0.83;;;18.90;60.40;;;;;;4937531;29;20523;-76
2023/11/02 05:31:50;;;;;;;2.23;1.00;;;18.90;60.20;;;;;;4937488;29;20456;-75
2023/11/02 05:34:18;;;;;;;1.47;1.10;;;18.90;60.30;;;;;;4929670;29;20524;-75
2023/11/02 05:36:47;;;;;;;1.27;1.10;;;18.90;60.00;;;;;;4929791;29;20539;-75
2023/11/02 05:39:16;;;;;;;1.47;0.90;;;18.90;60.20;;;;;;4933829;29;20551;-75
2023/11/02 05:41:45;;;;;;;0.90;0.80;;;18.90;60.10;;;;;;4925575;29;20458;-75
2023/11/02 05:44:12;;;;;;;0.80;0.80;;;18.90;60.30;;;;;;4937408;29;20487;-76
2023/11/02 05:46:40;;;;;;;1.67;0.83;;;18.90;60.00;;;;;;4929332;29;20535;-76
2023/11/02 05:49:08;;;;;;;1.13;1.03;;;18.90;60.00;;;;;;4935171;29;20477;-75
2023/11/02 05:51:35;;;;;;;1.20;1.10;;;18.90;60.10;;;;;;4946051;29;20519;-76
2023/11/02 05:54:03;;;;;;;0.80;0.80;;;18.90;60.00;;;;;;4937008;29;20480;-75
2023/11/02 05:56:32;;;;;;;0.90;0.90;;;18.90;59.80;;;;;;4935408;29;20443;-75
2023/11/02 05:59:00;;;;;;;1.00;0.90;;;18.90;60.20;;;;;;4931264;29;20531;-75
2023/11/02 06:01:28;;;;;;;1.20;1.10;;;18.90;60.00;;;;;;4938209;29;20446;-75
2023/11/02 06:03:57;;;;;;;1.77;0.90;;;18.90;60.00;;;;;;4943482;28;20535;-76
2023/11/02 06:06:25;;;;;;;1.87;1.10;;;18.90;60.00;;;;;;4928992;29;20456;-75
2023/11/02 06:08:53;;;;;;;1.47;1.10;;;18.90;59.90;;;;;;4931603;29;20508;-76
2023/11/02 06:11:22;;;;;;;1.70;0.90;;;18.90;59.80;;;;;;4939503;29;20448;-75
2023/11/02 06:13:51;;;;;;;2.30;0.80;;;18.90;59.90;;;;;;4936694;29;20558;-75
2023/11/02 06:16:21;;;;;;;1.37;1.00;;;18.90;59.80;;;;;;4932032;29;20520;-75
2023/11/02 06:18:49;;;;;;;1.80;1.13;;;18.90;59.90;;;;;;4942045;29;20534;-74
2023/11/02 06:21:18;;;;;;;0.97;0.97;;;18.90;60.00;;;;;;4936851;29;20464;-75
2023/11/02 06:23:45;;;;;;;1.00;0.90;;;18.90;60.00;;;;;;4929982;29;20440;-75
2023/11/02 06:26:18;;;;;;;1.43;1.00;;;18.90;59.80;;;;;;4928454;29;20523;-75
2023/11/02 06:28:46;;;;;;;2.30;0.90;;;18.90;59.80;;;;;;4947403;28;20566;-75
2023/11/02 06:31:15;;;;;;;3.27;1.00;;;18.90;60.00;;;;;;4941219;29;20448;-75
2023/11/02 06:33:43;;;;;;;2.77;0.97;;;18.90;59.80;;;;;;4936097;29;20527;-75
2023/11/02 06:36:11;;;;;;;2.30;0.80;;;18.90;59.60;;;;;;4936477;29;20480;-75
2023/11/02 06:38:39;;;;;;;0.90;0.90;;;18.90;59.90;;;;;;4931621;29;20468;-75
2023/11/02 06:41:08;;;;;;;1.10;0.90;;;18.90;59.60;;;;;;4942324;29;20551;-76
2023/11/02 06:43:36;;;;;;;1.20;1.10;;;18.90;59.80;;;;;;4922186;29;20621;-75
2023/11/02 06:46:04;;;;;;;1.20;1.10;;;18.90;59.60;;;;;;4927715;29;20449;-75
2023/11/02 06:48:34;;;;;;;1.20;1.10;;;18.90;59.70;;;;;;4941494;29;20472;-75
2023/11/02 06:51:02;;;;;;;2.20;1.07;;;18.90;59.60;;;;;;4936319;29;20452;-76
2023/11/02 06:53:30;;;;;;;1.37;1.00;;;18.90;59.70;;;;;;4927738;29;20564;-77
2023/11/02 06:55:58;;;;;;;1.13;0.80;;;19.00;59.80;;;;;;4931619;28;21062;-77
2023/11/02 06:58:26;;;;;;;1.80;1.17;;;19.00;59.80;;;;;;4922742;29;20489;-77
2023/11/02 07:00:57;;;;;;;1.10;1.00;;;18.90;59.60;;;;;;4936196;29;20443;-77
2023/11/02 07:03:27;;;;;;;1.57;1.20;;;19.00;59.80;;;;;;4933542;29;20547;-76
2023/11/02 07:05:56;;;;;;;2.17;1.00;;;19.00;59.60;;;;;;4927642;29;20475;-77
2023/11/02 07:08:24;;;;;;;1.47;1.17;;;19.00;59.60;;;;;;4935615;29;20471;-76
2023/11/02 07:10:52;;;;;;;1.23;1.10;;;19.00;59.70;;;;;;4927920;29;20535;-75
2023/11/02 07:13:21;;;;;;;2.77;1.20;;;19.00;59.70;;;;;;4931108;29;20571;-76
2023/11/02 07:15:49;;;;;;;1.10;1.10;;;19.00;59.50;;;;;;4936439;29;20532;-77
2023/11/02 07:18:17;;;;;;;1.77;1.20;;;19.00;59.40;;;;;;4929983;29;20453;-76
2023/11/02 07:20:45;;;;;;;2.73;1.23;;;19.00;59.60;;;;;;4935034;29;20507;-76
2023/11/02 07:23:15;;;;;;;1.67;1.20;;;19.10;59.60;;;;;;4935498;29;20471;-76
2023/11/02 07:25:43;;;;;;;1.73;1.00;;;19.10;59.60;;;;;;4937201;29;20516;-75
2023/11/02 07:28:11;;;;;;;1.03;1.03;;;19.10;59.60;;;;;;4934657;29;20522;-76
2023/11/02 07:30:39;;;;;;;1.20;1.10;;;19.00;59.40;;;;;;4934025;29;20448;-75
2023/11/02 07:33:07;;;;;;;1.17;1.07;;;19.10;59.60;;;;;;4928755;29;20483;-75
2023/11/02 07:35:36;;;;;;;1.20;1.10;;;19.10;59.40;;;;;;4935122;29;20463;-76
2023/11/02 07:38:04;;;;;;;2.17;0.90;;;19.10;59.60;;;;;;4933913;29;20452;-76
2023/11/02 07:40:33;;;;;;;1.53;1.20;;;19.10;59.60;;;;;;4930168;29;20484;-76
2023/11/02 07:43:01;;;;;;;1.80;1.00;;;19.00;59.40;;;;;;4929227;29;20515;-76
2023/11/02 07:45:29;;;;;;;1.53;1.30;;;19.10;59.60;;;;;;4930915;29;20501;-76
2023/11/02 07:47:57;;;;;;;1.30;1.20;;;19.10;59.50;;;;;;4931534;29;20443;-76
2023/11/02 07:50:25;;;;;;;1.00;0.90;;;19.10;59.40;;;;;;4935945;29;20460;-76
2023/11/02 07:52:53;;;;;;;1.60;1.17;;;19.10;59.30;;;;;;4931245;29;20431;-76
2023/11/02 07:55:22;;;;;;;1.33;1.20;;;19.10;59.90;;;;;;4938148;29;21082;-76
2023/11/02 07:57:51;;;;;;;1.37;1.07;;;19.10;59.30;;;;;;4929948;29;20535;-76
2023/11/02 08:00:19;;;;;;;1.23;1.03;;;19.10;59.20;;;;;;4930364;29;20558;-75
2023/11/02 08:02:47;;;;;;;2.97;1.00;;;19.10;59.20;;;;;;4934532;29;20447;-76
2023/11/02 08:05:15;;;;;;;1.23;1.13;;;19.10;59.30;;;;;;4932252;29;20479;-76
2023/11/02 08:07:43;;;;;;;1.80;1.00;;;19.10;59.90;;;;;;4934434;29;20448;-75
2023/11/02 08:10:12;;;;;;;2.70;1.10;;;19.10;59.30;;;;;;4925378;29;20457;-77
2023/11/02 08:12:39;;;;;;;2.30;1.00;;;19.20;59.20;;;;;;4930028;29;20455;-76
2023/11/02 08:15:10;;;;;;;1.63;1.20;;;19.20;59.10;;;;;;4929667;29;20467;-76
2023/11/02 08:17:39;;;;;;;1.10;0.93;;;19.20;59.20;;;;;;4934638;29;20548;-76
2023/11/02 08:20:10;;;;;;;2.67;1.00;;;19.20;59.00;;;;;;4928293;29;20851;-76
2023/11/02 08:22:38;;;;;;;1.27;1.10;;;19.20;59.10;;;;;;4926392;29;20452;-76
2023/11/02 08:25:08;;;;;;;3.43;1.00;;;19.20;59.20;;;;;;4927532;29;20492;-76
2023/11/02 08:27:36;;;;;;;2.63;1.50;;;19.20;58.90;;;;;;4926729;29;20535;-76
2023/11/02 08:30:07;;;;;;;6.30;1.47;;;19.30;59.10;;;;;;4934520;29;20475;-75
2023/11/02 08:32:36;;;;;;;3.47;1.00;;;19.30;58.90;;;;;;4934582;29;20447;-76
2023/11/02 08:35:05;;;;;;;3.30;1.17;;;19.30;58.70;;;;;;4926818;29;20476;-75
2023/11/02 08:37:33;;;;;;;1.73;1.00;;;19.20;58.80;;;;;;4926854;29;20453;-75
2023/11/02 08:40:01;;;;;;;2.50;1.10;;;19.20;58.80;;;;;;4932469;29;20467;-76
2023/11/02 08:42:29;;;;;;;6.40;1.27;;;19.20;58.80;;;;;;4936511;29;20468;-75
2023/11/02 08:44:57;;;;;;;1.23;1.07;;;19.20;58.80;;;;;;4924403;29;20452;-75
2023/11/02 08:47:25;;;;;;;1.03;0.93;;;19.30;58.80;;;;;;4932009;29;20499;-77
2023/11/02 08:49:54;;;;;;;1.13;1.03;;;19.20;58.80;;;;;;4936347;29;20523;-75
2023/11/02 08:52:23;;;;;;;1.80;1.40;;;19.30;58.70;;;;;;4931833;29;20544;-75
2023/11/02 08:54:51;;;;;;;1.23;0.93;;;19.30;58.80;;;;;;4929028;29;20480;-75
2023/11/02 08:57:18;;;;;;;1.83;1.00;;;19.20;58.80;;;;;;4937514;29;20511;-76
2023/11/02 08:59:46;;;;;;;2.23;1.40;;;19.30;58.80;;;;;;4936973;29;20494;-76
2023/11/02 09:02:14;;;;;;;1.27;1.20;;;19.30;58.90;;;;;;4937530;29;20456;-76
2023/11/02 09:04:42;;;;;;;1.40;1.30;;;19.30;58.70;;;;;;4932626;29;20516;-75
2023/11/02 09:07:12;;;;;;;2.20;1.53;;;19.30;58.90;;;;;;4937553;29;20452;-76
2023/11/02 09:09:40;;;;;;;3.67;1.30;;;19.20;58.80;;;;;;4929250;29;20472;-76
2023/11/02 09:12:08;;;;;;;1.13;1.00;;;19.30;58.80;;;;;;4937369;29;20466;-75
2023/11/02 09:14:36;;;;;;;2.47;1.33;;;19.30;58.70;;;;;;4928846;29;20469;-76
2023/11/02 09:17:04;;;;;;;2.63;1.60;;;19.30;59.00;;;;;;4922264;29;20495;-76
2023/11/02 09:19:32;;;;;;;1.40;1.30;;;19.30;58.90;;;;;;4937670;29;20468;-76
2023/11/02 09:22:00;;;;;;;1.63;1.50;;;19.30;59.10;;;;;;4937420;29;20440;-76
2023/11/02 09:24:29;;;;;;;1.40;1.30;;;19.30;59.20;;;;;;4931347;29;20528;-76
2023/11/02 09:26:57;;;;;;;1.70;1.20;;;19.30;59.00;;;;;;4934381;29;20439;-76
2023/11/02 09:29:25;;;;;;;1.40;1.30;;;19.30;59.10;;;;;;4934964;29;20462;-77
2023/11/02 09:31:53;;;;;;;1.30;1.20;;;19.30;59.20;;;;;;4937748;29;20516;-77
2023/11/02 09:34:33;;;;;;;2.13;1.40;;;19.40;59.20;;;;;;4932688;29;20545;-76
2023/11/02 09:37:01;;;;;;;1.30;1.20;;;19.50;59.20;;;;;;4930945;29;20452;-76
2023/11/02 09:39:31;;;;;;;1.40;1.20;;;19.60;59.10;;;;;;4940337;29;20487;-76
2023/11/02 09:42:00;;;;;;;1.53;1.20;;;19.70;59.40;;;;;;4937268;29;20508;-76
2023/11/02 09:44:28;;;;;;;1.60;1.50;;;20.00;59.70;;;;;;4927980;29;20452;-75
2023/11/02 09:46:56;;;;;;;3.70;1.03;;;20.20;59.70;;;;;;4933206;29;20515;-76
2023/11/02 09:49:25;;;;;;;3.03;1.20;;;20.50;59.50;;;;;;4932558;29;20496;-76
2023/11/02 09:51:55;;;;;;;1.40;1.20;;;20.70;59.10;;;;;;4934332;29;20543;-77
2023/11/02 09:54:23;;;;;;;1.03;1.03;;;20.90;59.10;;;;;;4932792;29;20453;-77
2023/11/02 09:57:10;;;;;;;5.30;1.37;;;21.10;58.90;;;;;;4929597;29;20502;-76
2023/11/02 09:59:42;;;;;;;10.83;0.90;;;21.00;55.40;;;;;;4933190;29;20476;-76
2023/11/02 10:02:10;;;;;;;1.57;0.87;;;18.90;57.50;;;;;;4925041;29;20495;-76
2023/11/02 10:04:38;;;;;;;4.43;1.03;;;17.90;59.10;;;;;;4926716;29;20457;-76
2023/11/02 10:07:06;;;;;;;7.70;1.10;;;16.80;61.50;;;;;;4931349;29;20547;-76
2023/11/02 10:09:35;;;;;;;4.10;0.80;;;16.30;64.60;;;;;;4940602;29;20522;-76
2023/11/02 10:12:04;;;;;;;3.70;1.00;;;15.70;66.20;;;;;;4934375;28;20451;-76
2023/11/02 10:14:34;;;;;;;7.90;1.33;;;15.60;66.00;;;;;;4935831;29;20468;-77
2023/11/02 10:17:02;;;;;;;4.30;1.00;;;15.30;69.00;;;;;;4934640;29;20539;-76
2023/11/02 10:19:30;;;;;;;5.17;1.47;;;15.30;69.00;;;;;;4934456;29;20488;-76
2023/11/02 10:21:59;;;;;;;6.83;1.33;;;15.50;68.70;;;;;;4935966;29;20518;-76
2023/11/02 10:24:30;;;;;;;7.13;1.57;;;15.50;68.30;;;;;;4930878;29;20471;-76
2023/11/02 10:26:58;;;;;;;12.00;1.47;;;15.80;71.50;;;;;;4935112;29;20447;-76
2023/11/02 10:29:26;;;;;;;10.63;1.40;;;17.00;68.90;;;;;;4934625;29;20495;-76
2023/11/02 10:31:58;;;;;;;11.63;1.70;;;18.10;65.40;;;;;;4927463;29;20524;-76
2023/11/02 10:34:27;;;;;;;4.07;1.10;;;18.90;62.40;;;;;;4932352;29;20478;-77
2023/11/02 10:36:57;;;;;;;6.90;1.20;;;19.50;60.50;;;;;;4935656;29;20567;-77
2023/11/02 10:39:25;;;;;;;10.13;1.00;;;20.00;59.20;;;;;;4936479;29;20479;-77
2023/11/02 10:42:00;;;;;;;7.20;1.57;;;20.30;58.20;;;;;;4935028;29;20457;-77
2023/11/02 10:44:29;;;;;;;13.13;1.23;;;20.50;57.40;;;;;;4931045;29;20456;-77
2023/11/02 10:47:01;;;;;;;8.73;1.30;;;20.70;56.90;;;;;;4931080;29;20436;-77
2023/11/02 10:49:29;;;;;;;1.50;0.80;;;20.90;56.60;;;;;;4936453;29;20941;-76
2023/11/02 10:51:58;;;;;;;5.50;1.00;;;21.00;56.20;;;;;;4936798;29;20429;-77
2023/11/02 10:54:32;;;;;;;9.60;1.10;;;21.10;55.90;;;;;;4936235;29;20414;-77
2023/11/02 10:57:05;;;;;;;5.53;1.10;;;21.20;55.70;;;;;;4938140;29;20494;-76
2023/11/02 10:59:34;;;;;;;10.03;0.97;;;21.30;55.50;;;;;;4936134;29;20460;-76
2023/11/02 11:02:04;;;;;;;1.30;1.00;;;21.50;55.40;;;;;;4935356;29;20543;-76
2023/11/02 11:04:32;;;;;;;2.70;0.90;;;21.60;55.30;;;;;;4930322;29;20458;-77
2023/11/02 11:07:00;;;;;;;1.50;1.00;;;21.70;55.00;;;;;;4941082;29;20506;-76
2023/11/02 11:09:28;;;;;;;2.17;0.80;;;21.70;55.00;;;;;;4937061;29;20467;-77
2023/11/02 11:11:59;;;;;;;2.80;1.10;;;21.70;54.80;;;;;;4936346;29;20436;-77
2023/11/02 11:14:28;;;;;;;13.87;0.80;;;21.80;55.00;;;;;;4936715;29;20444;-77
2023/11/02 11:16:57;;;;;;;1.83;0.77;;;21.90;54.70;;;;;;4934043;29;20539;-76
2023/11/02 11:19:29;;;;;;;4.67;0.80;;;22.00;54.40;;;;;;4941551;28;20466;-77
2023/11/02 11:21:58;;;;;;;9.33;1.13;;;22.00;54.30;;;;;;4935318;29;20456;-78
2023/11/02 11:24:30;;;;;;;3.50;0.87;;;22.00;54.40;;;;;;4932278;29;20448;-77
2023/11/02 11:26:58;;;;;;;6.17;0.80;;;22.00;54.20;;;;;;4935428;29;20452;-77
2023/11/02 11:29:34;;;;;;;2.70;1.00;;;21.90;54.40;;;;;;4933919;29;20448;-77
2023/11/02 11:32:02;;;;;;;2.27;0.80;;;21.80;54.40;;;;;;4938324;29;20448;-77
2023/11/02 11:35:03;;;;;;;2.00;0.97;;;21.80;54.40;;;;;;4930175;29;20460;-77
2023/11/02 11:37:39;;;;;;;4.03;0.83;;;21.80;54.70;;;;;;4930379;29;20483;-77
2023/11/02 11:40:10;;;;;;;3.33;0.80;;;21.80;54.50;;;;;;4932636;29;20524;-76
2023/11/02 11:42:58;;;;;;;5.53;0.90;;;21.90;54.80;;;;;;4943261;29;20495;-76
2023/11/02 11:45:26;;;;;;;0.70;0.70;;;22.00;55.10;;;;;;4937308;29;20426;-75
2023/11/02 11:47:54;;;;;;;1.53;0.80;;;22.20;54.50;;;;;;4936939;29;20429;-76
2023/11/02 11:50:33;;;;;;;1.77;0.67;;;22.30;54.20;;;;;;4938678;29;20555;-76
2023/11/02 11:53:13;;;;;;;4.60;0.90;;;22.40;54.20;;;;;;4933791;29;20534;-76
2023/11/02 11:55:42;;;;;;;1.70;0.80;;;22.40;54.10;;;;;;4945920;29;20479;-76
2023/11/02 11:58:10;;;;;;;1.83;0.83;;;22.30;54.00;;;;;;4939376;29;20465;-76
2023/11/02 12:01:14;;;;;;;5.57;0.80;;;22.30;54.00;;;;;;4940849;29;20431;-76
2023/11/02 12:03:43;;;;;;;0.93;0.87;;;22.30;54.40;;;;;;4938879;29;20467;-76
2023/11/02 12:06:12;;;;;;;0.70;0.70;;;22.40;54.40;;;;;;4927500;29;20440;-75
2023/11/02 12:43:40;;;;;;;1.40;0.80;;;22.60;53.90;;;;;;4997630;28;20465;-75
2023/11/02 12:46:10;;;;;;;1.97;0.60;;;22.60;53.70;;;;;;4991582;28;20446;-75
2023/11/02 12:48:40;;;;;;;0.70;0.70;;;22.60;53.30;;;;;;4991199;28;20467;-75
2023/11/02 12:51:20;;;;;;;0.93;0.77;;;22.60;53.40;;;;;;4977753;28;20536;-76
2023/11/02 12:53:48;;;;;;;0.70;0.70;;;22.70;54.30;;;;;;4979770;28;20473;-76
2023/11/02 12:56:22;;;;;;;0.73;0.60;;;23.20;54.40;;;;;;4992582;28;20454;-75
2023/11/02 12:59:03;;;;;;;1.83;0.80;;;23.70;53.20;;;;;;4984920;28;20481;-76
2023/11/02 13:01:47;;;;;;;0.80;0.80;;;24.10;53.00;;;;;;4961743;28;20452;-76
2023/11/02 13:04:16;;;;;;;2.50;0.90;;;24.50;52.20;;;;;;4972854;28;20496;-76
2023/11/02 13:06:44;;;;;;;1.43;0.70;;;24.70;51.90;;;;;;4969232;28;20557;-76
2023/11/02 13:09:13;;;;;;;1.37;0.70;;;25.10;51.60;;;;;;4990586;28;20465;-76
2023/11/02 13:11:43;;;;;;;0.70;0.70;;;25.40;51.30;;;;;;4981556;28;20482;-77
2023/11/02 13:14:13;;;;;;;3.03;0.80;;;25.60;50.50;;;;;;4993435;28;20419;-77
2023/11/02 13:16:41;;;;;;;0.87;0.87;;;25.60;49.90;;;;;;4984400;28;20447;-77
2023/11/02 13:19:09;;;;;;;0.73;0.73;;;25.50;49.80;;;;;;4988648;28;20493;-76
2023/11/02 13:21:38;;;;;;;0.87;0.77;;;25.30;49.50;;;;;;4994804;28;20477;-76
2023/11/02 13:24:06;;;;;;;3.60;0.77;;;25.00;49.60;;;;;;4980698;28;20438;-77
2023/11/02 13:26:37;;;;;;;4.20;0.80;;;24.80;49.60;;;;;;4977064;28;20418;-77
2023/11/02 13:29:07;;;;;;;0.80;0.70;;;24.50;49.80;;;;;;4985795;28;20620;-76
2023/11/02 13:31:37;;;;;;;1.80;0.80;;;24.40;50.30;;;;;;4976709;28;20459;-76
2023/11/02 13:34:05;;;;;;;3.10;0.70;;;24.30;50.10;;;;;;4980956;28;20454;-77
2023/11/02 13:36:34;;;;;;;2.60;0.80;;;24.10;50.40;;;;;;4985354;28;20472;-76
2023/11/02 13:39:02;;;;;;;4.20;0.70;;;24.10;50.60;;;;;;4982267;28;20477;-76
2023/11/02 13:41:31;;;;;;;0.80;0.60;;;24.10;50.80;;;;;;4962487;28;20439;-76